Pelagitis — SVBC8 — position and weather

sailwx.info

Track history (hours):
 
Tides and Currents Weather Stations Pressure Air Temp Water Temp Dewpoint Dewpoint Depression Visibility Wind Speed Wind Dir Waves Ship Positions

Pelagitis

Last reported at 2018-Jan-18 00:31 UTC. Time now 2018-Jan-18 04:15 UTC.
Position N 37°40' E 025°39'.

Length 151 m; draft 6.7 m.

Type: Cargo ship. MMSI: 241041410.

Date/timePositionNaut miles runAvg speedWind from/ knotsBaromVisibWave heightAir tempDewpointWater temp
2018-Jan-18 00:31N 37°40' E 025°39'815.5
2018-Jan-18 00:00N 37°35' E 025°32'115.9
2018-Jan-17 23:57N 37°34' E 025°31'  
2018-Jan-11 23:47N 39°53' E 024°06'415.2
2018-Jan-11 23:30N 39°53' E 024°11'2414.8
2018-Jan-11 21:52N 39°53' E 024°43'614.9
2018-Jan-11 21:28N 39°53' E 024°51'815.1
2018-Jan-11 20:56N 39°52' E 025°01'2 1.5
2018-Jan-11 19:51N 39°52' E 025°03'109 5.3
2018-Jan-10 23:09N 38°05' E 025°31'415.9
2018-Jan-10 22:55N 38°05' E 025°27'1216.3
2018-Jan-10 22:09N 38°03' E 025°11'316.4
2018-Jan-10 22:00N 38°03' E 025°08'916.5
2018-Jan-10 21:27N 38°02' E 024°56'2014.8
2018-Jan-10 20:06N 37°54' E 024°33'114.9
2018-Jan-10 20:00N 37°53' E 024°32'814.9
2018-Jan-10 19:29N 37°49' E 024°24'715.3
2018-Jan-10 19:00N 37°44' E 024°16'815.2
2018-Jan-10 18:28N 37°39' E 024°08'715.1
2018-Jan-10 17:59N 37°38' E 023°59'715.7
2018-Jan-10 17:30N 37°39' E 023°50'714.5
2018-Jan-10 17:01N 37°42' E 023°42'815.8
2018-Jan-10 16:31N 37°49' E 023°38'714.2
2018-Jan-10 16:00N 37°56' E 023°36'1 2.0
2018-Jan-10 15:27N 37°57' E 023°36'0 0.0
2018-Jan-10 15:00N 37°57' E 023°36'0 0.0
2018-Jan-10 14:28N 37°57' E 023°36'0 0.0
2018-Jan-10 14:00N 37°57' E 023°36'0 0.0
2018-Jan-10 13:28N 37°57' E 023°36'0 0.0
2018-Jan-10 13:00N 37°57' E 023°36'0 0.0
2018-Jan-10 12:29N 37°57' E 023°36'0 0.0
2018-Jan-10 11:58N 37°57' E 023°36'0 0.0
2018-Jan-10 11:24N 37°57' E 023°36'0 0.0
2018-Jan-10 10:53N 37°57' E 023°36'0 0.0
2018-Jan-10 10:27N 37°57' E 023°36'0 0.0
2018-Jan-10 09:57N 37°57' E 023°36'0 0.0
2018-Jan-10 09:29N 37°57' E 023°36'0 0.0
2018-Jan-10 09:00N 37°57' E 023°36'0 0.0
2018-Jan-10 08:30N 37°57' E 023°36'0 0.0
2018-Jan-10 07:57N 37°57' E 023°36'0 0.0
2018-Jan-10 07:30N 37°57' E 023°36'0 0.0
2018-Jan-10 06:58N 37°57' E 023°36'0 0.0
2018-Jan-10 06:30N 37°57' E 023°36'0 0.0
2018-Jan-10 05:59N 37°57' E 023°36'0 0.0
2018-Jan-10 05:26N 37°57' E 023°36'0 0.0
2018-Jan-10 05:01N 37°57' E 023°36'1 2.9
2018-Jan-10 04:31N 37°56' E 023°36'815.0
2018-Jan-10 04:01N 37°49' E 023°40'714.8
2018-Jan-10 03:30N 37°42' E 023°44'714.8
2018-Jan-10 03:00N 37°35' E 023°47'2614.8
2018-Jan-10 01:16N 37°10' E 023°52'1114.9
2018-Jan-10 00:31N 36°59' E 023°54'614.9
2018-Jan-10 00:06N 36°52' E 023°56'314.8
2018-Jan-09 23:53N 36°49' E 023°56'614.8
2018-Jan-09 23:28N 36°43' E 023°57'714.9
2018-Jan-09 23:01N 36°36' E 023°59'815.1
2018-Jan-09 22:31N 36°29' E 024°00'714.7
2018-Jan-09 22:01N 36°22' E 024°02'714.8
2018-Jan-09 21:30N 36°14' E 024°04'815.2
2018-Jan-09 21:00N 36°07' E 024°06'815.2
2018-Jan-09 20:31N 35°60' E 024°07'815.1
2018-Jan-09 20:00N 35°52' E 024°09'815.4
2018-Jan-09 19:30N 35°44' E 024°10'1115.5
2018-Jan-09 18:46N 35°33' E 024°13'413.4
2018-Jan-09 18:27N 35°29' E 024°11'1 0.1
2018-Jan-09 05:08N 35°29' E 024°10'214.3
2018-Jan-09 05:00N 35°30' E 024°12'815.3
2018-Jan-09 04:30N 35°37' E 024°13'815.8
2018-Jan-09 04:00N 35°45' E 024°11'816.0
2018-Jan-09 03:30N 35°53' E 024°09'816.3
2018-Jan-09 03:00N 36°01' E 024°07'816.3
2018-Jan-09 02:30N 36°09' E 024°05'816.2
2018-Jan-09 02:00N 36°17' E 024°03'816.3
2018-Jan-09 01:30N 36°25' E 024°01'816.3
2018-Jan-09 01:00N 36°33' E 023°59'816.0
2018-Jan-09 00:30N 36°41' E 023°57'916.2
2018-Jan-08 23:59N 36°49' E 023°56'1616.2
2018-Jan-08 22:57N 37°05' E 023°51'716.3
2018-Jan-08 22:30N 37°12' E 023°50'1516.2
2018-Jan-08 21:36N 37°27' E 023°46'316.1
2018-Jan-08 21:25N 37°30' E 023°45'716.0
2018-Jan-08 21:00N 37°36' E 023°43'1415.6
2018-Jan-08 20:08N 37°49' E 023°38'2 7.0
2018-Jan-08 19:55N 37°50' E 023°37'2 3.9
2018-Jan-08 19:30N 37°52' E 023°37'2 4.1
2018-Jan-08 19:00N 37°54' E 023°37'3 5.6
2018-Jan-08 18:30N 37°57' E 023°36'1 1.2
2018-Jan-08 17:58N 37°57' E 023°36'0 0.0
2018-Jan-08 17:17N 37°57' E 023°36'0 0.0
2018-Jan-08 17:00N 37°57' E 023°36'0 0.0
2018-Jan-08 16:23N 37°57' E 023°36'0 0.0
2018-Jan-08 15:58N 37°57' E 023°36'0 0.0
2018-Jan-08 15:30N 37°57' E 023°36'0 0.0
2018-Jan-08 14:58N 37°57' E 023°36'0 0.0
2018-Jan-08 14:30N 37°57' E 023°36'0 0.0
2018-Jan-08 13:59N 37°57' E 023°36'0 0.0
2018-Jan-08 13:30N 37°57' E 023°36'0 0.0
2018-Jan-08 12:59N 37°57' E 023°36'0 0.0
2018-Jan-08 12:29N 37°57' E 023°36'0 0.0
2018-Jan-08 11:57N 37°57' E 023°36'0 0.0
2018-Jan-08 11:28N 37°57' E 023°36'0 0.0
2018-Jan-08 10:53N 37°57' E 023°36'0 0.0
2018-Jan-08 10:27N 37°57' E 023°36'0 0.0
2018-Jan-08 09:59N 37°57' E 023°36'0 0.0
2018-Jan-08 09:27N 37°57' E 023°36'0 0.0
2018-Jan-08 08:59N 37°57' E 023°36'0 0.0
2018-Jan-08 08:29N 37°57' E 023°36'0 0.0
2018-Jan-08 07:56N 37°57' E 023°36'0 0.0
2018-Jan-08 07:27N 37°57' E 023°36'0 0.0
2018-Jan-08 06:58N 37°57' E 023°36'0 0.0
2018-Jan-08 06:30N 37°57' E 023°36'0 0.0
2018-Jan-08 06:01N 37°57' E 023°36'0 0.0
2018-Jan-08 05:31N 37°57' E 023°36'0 0.4
2018-Jan-08 05:01N 37°57' E 023°36'611.8
2018-Jan-08 04:30N 37°52' E 023°39'815.7
2018-Jan-08 04:00N 37°45' E 023°43'2713.3
2018-Jan-08 02:01N 37°43' E 024°17'013.7
2018-Jan-08 02:00N 37°43' E 024°17'  
Track history (hours):
 
Tides and Currents Weather Stations Pressure Air Temp Water Temp Dewpoint Dewpoint Depression Visibility Wind Speed Wind Dir Waves Ship Positions

Pelagitis

Last reported at 2018-Jan-18 00:31 UTC. Time now 2018-Jan-18 04:15 UTC.
Position N 37°40' E 025°39'.

Length 151 m; draft 6.7 m.

Type: Cargo ship. MMSI: 241041410.

Date/timePositionNaut miles runAvg speedWind from/ knotsBaromVisibWave heightAir tempDewpointWater temp
2018-Jan-18 00:31N 37°40' E 025°39'815.5
2018-Jan-18 00:00N 37°35' E 025°32'115.9
2018-Jan-17 23:57N 37°34' E 025°31'  
2018-Jan-11 23:47N 39°53' E 024°06'415.2
2018-Jan-11 23:30N 39°53' E 024°11'2414.8
2018-Jan-11 21:52N 39°53' E 024°43'614.9
2018-Jan-11 21:28N 39°53' E 024°51'815.1
2018-Jan-11 20:56N 39°52' E 025°01'2 1.5
2018-Jan-11 19:51N 39°52' E 025°03'109 5.3
2018-Jan-10 23:09N 38°05' E 025°31'415.9
2018-Jan-10 22:55N 38°05' E 025°27'1216.3
2018-Jan-10 22:09N 38°03' E 025°11'316.4
2018-Jan-10 22:00N 38°03' E 025°08'916.5
2018-Jan-10 21:27N 38°02' E 024°56'2014.8
2018-Jan-10 20:06N 37°54' E 024°33'114.9
2018-Jan-10 20:00N 37°53' E 024°32'814.9
2018-Jan-10 19:29N 37°49' E 024°24'715.3
2018-Jan-10 19:00N 37°44' E 024°16'815.2
2018-Jan-10 18:28N 37°39' E 024°08'715.1
2018-Jan-10 17:59N 37°38' E 023°59'715.7
2018-Jan-10 17:30N 37°39' E 023°50'714.5
2018-Jan-10 17:01N 37°42' E 023°42'815.8
2018-Jan-10 16:31N 37°49' E 023°38'714.2
2018-Jan-10 16:00N 37°56' E 023°36'1 2.0
2018-Jan-10 15:27N 37°57' E 023°36'0 0.0
2018-Jan-10 15:00N 37°57' E 023°36'0 0.0
2018-Jan-10 14:28N 37°57' E 023°36'0 0.0
2018-Jan-10 14:00N 37°57' E 023°36'0 0.0
2018-Jan-10 13:28N 37°57' E 023°36'0 0.0
2018-Jan-10 13:00N 37°57' E 023°36'0 0.0
2018-Jan-10 12:29N 37°57' E 023°36'0 0.0
2018-Jan-10 11:58N 37°57' E 023°36'0 0.0
2018-Jan-10 11:24N 37°57' E 023°36'0 0.0
2018-Jan-10 10:53N 37°57' E 023°36'0 0.0
2018-Jan-10 10:27N 37°57' E 023°36'0 0.0
2018-Jan-10 09:57N 37°57' E 023°36'0 0.0
2018-Jan-10 09:29N 37°57' E 023°36'0 0.0
2018-Jan-10 09:00N 37°57' E 023°36'0 0.0
2018-Jan-10 08:30N 37°57' E 023°36'0 0.0
2018-Jan-10 07:57N 37°57' E 023°36'0 0.0
2018-Jan-10 07:30N 37°57' E 023°36'0 0.0
2018-Jan-10 06:58N 37°57' E 023°36'0 0.0
2018-Jan-10 06:30N 37°57' E 023°36'0 0.0
2018-Jan-10 05:59N 37°57' E 023°36'0 0.0
2018-Jan-10 05:26N 37°57' E 023°36'0 0.0
2018-Jan-10 05:01N 37°57' E 023°36'1 2.9
2018-Jan-10 04:31N 37°56' E 023°36'815.0
2018-Jan-10 04:01N 37°49' E 023°40'714.8
2018-Jan-10 03:30N 37°42' E 023°44'714.8
2018-Jan-10 03:00N 37°35' E 023°47'2614.8
2018-Jan-10 01:16N 37°10' E 023°52'1114.9
2018-Jan-10 00:31N 36°59' E 023°54'614.9
2018-Jan-10 00:06N 36°52' E 023°56'314.8
2018-Jan-09 23:53N 36°49' E 023°56'614.8
2018-Jan-09 23:28N 36°43' E 023°57'714.9
2018-Jan-09 23:01N 36°36' E 023°59'815.1
2018-Jan-09 22:31N 36°29' E 024°00'714.7
2018-Jan-09 22:01N 36°22' E 024°02'714.8
2018-Jan-09 21:30N 36°14' E 024°04'815.2
2018-Jan-09 21:00N 36°07' E 024°06'815.2
2018-Jan-09 20:31N 35°60' E 024°07'815.1
2018-Jan-09 20:00N 35°52' E 024°09'815.4
2018-Jan-09 19:30N 35°44' E 024°10'1115.5
2018-Jan-09 18:46N 35°33' E 024°13'413.4
2018-Jan-09 18:27N 35°29' E 024°11'1 0.1
2018-Jan-09 05:08N 35°29' E 024°10'214.3
2018-Jan-09 05:00N 35°30' E 024°12'815.3
2018-Jan-09 04:30N 35°37' E 024°13'815.8
2018-Jan-09 04:00N 35°45' E 024°11'816.0
2018-Jan-09 03:30N 35°53' E 024°09'816.3
2018-Jan-09 03:00N 36°01' E 024°07'816.3
2018-Jan-09 02:30N 36°09' E 024°05'816.2
2018-Jan-09 02:00N 36°17' E 024°03'816.3
2018-Jan-09 01:30N 36°25' E 024°01'816.3
2018-Jan-09 01:00N 36°33' E 023°59'816.0
2018-Jan-09 00:30N 36°41' E 023°57'916.2
2018-Jan-08 23:59N 36°49' E 023°56'1616.2
2018-Jan-08 22:57N 37°05' E 023°51'716.3
2018-Jan-08 22:30N 37°12' E 023°50'1516.2
2018-Jan-08 21:36N 37°27' E 023°46'316.1
2018-Jan-08 21:25N 37°30' E 023°45'716.0
2018-Jan-08 21:00N 37°36' E 023°43'1415.6
2018-Jan-08 20:08N 37°49' E 023°38'2 7.0
2018-Jan-08 19:55N 37°50' E 023°37'2 3.9
2018-Jan-08 19:30N 37°52' E 023°37'2 4.1
2018-Jan-08 19:00N 37°54' E 023°37'3 5.6
2018-Jan-08 18:30N 37°57' E 023°36'1 1.2
2018-Jan-08 17:58N 37°57' E 023°36'0 0.0
2018-Jan-08 17:17N 37°57' E 023°36'0 0.0
2018-Jan-08 17:00N 37°57' E 023°36'0 0.0
2018-Jan-08 16:23N 37°57' E 023°36'0 0.0
2018-Jan-08 15:58N 37°57' E 023°36'0 0.0
2018-Jan-08 15:30N 37°57' E 023°36'0 0.0
2018-Jan-08 14:58N 37°57' E 023°36'0 0.0
2018-Jan-08 14:30N 37°57' E 023°36'0 0.0
2018-Jan-08 13:59N 37°57' E 023°36'0 0.0
2018-Jan-08 13:30N 37°57' E 023°36'0 0.0
2018-Jan-08 12:59N 37°57' E 023°36'0 0.0
2018-Jan-08 12:29N 37°57' E 023°36'0 0.0
2018-Jan-08 11:57N 37°57' E 023°36'0 0.0
2018-Jan-08 11:28N 37°57' E 023°36'0 0.0
2018-Jan-08 10:53N 37°57' E 023°36'0 0.0
2018-Jan-08 10:27N 37°57' E 023°36'0 0.0
2018-Jan-08 09:59N 37°57' E 023°36'0 0.0
2018-Jan-08 09:27N 37°57' E 023°36'0 0.0
2018-Jan-08 08:59N 37°57' E 023°36'0 0.0
2018-Jan-08 08:29N 37°57' E 023°36'0 0.0
2018-Jan-08 07:56N 37°57' E 023°36'0 0.0
2018-Jan-08 07:27N 37°57' E 023°36'0 0.0
2018-Jan-08 06:58N 37°57' E 023°36'0 0.0
2018-Jan-08 06:30N 37°57' E 023°36'0 0.0
2018-Jan-08 06:01N 37°57' E 023°36'0 0.0
2018-Jan-08 05:31N 37°57' E 023°36'0 0.4
2018-Jan-08 05:01N 37°57' E 023°36'611.8
2018-Jan-08 04:30N 37°52' E 023°39'815.7
2018-Jan-08 04:00N 37°45' E 023°43'2713.3
2018-Jan-08 02:01N 37°43' E 024°17'013.7
2018-Jan-08 02:00N 37°43' E 024°17'  

Dump ship's entire track history